createdAt,value
2018-05-13T00:02:17.395Z,15.90
2018-05-13T00:07:20.447Z,15.80
2018-05-13T00:09:47.964Z,15.90
2018-05-13T00:12:15.589Z,15.80
2018-05-13T00:14:43.142Z,15.70
2018-05-13T00:17:10.670Z,15.80
2018-05-13T00:19:38.204Z,15.60
2018-05-13T00:22:06.615Z,15.60
2018-05-13T00:24:34.201Z,15.50
2018-05-13T00:27:01.846Z,15.80
2018-05-13T00:29:29.412Z,15.70
2018-05-13T00:31:56.933Z,15.60
2018-05-13T00:34:25.267Z,15.80
2018-05-13T00:36:53.005Z,15.80
2018-05-13T00:39:20.526Z,15.80
2018-05-13T00:41:48.835Z,15.70
2018-05-13T00:44:16.399Z,15.60
2018-05-13T00:46:43.907Z,15.60
2018-05-13T00:49:11.530Z,15.60
2018-05-13T00:51:39.093Z,15.50
2018-05-13T00:54:18.514Z,15.50
2018-05-13T00:56:46.161Z,15.40
2018-05-13T00:59:13.681Z,15.40
2018-05-13T01:01:41.297Z,15.20
2018-05-13T01:04:08.855Z,15.10
2018-05-13T01:06:36.381Z,15.10
2018-05-13T01:09:03.915Z,15.00
2018-05-13T01:11:31.475Z,15.10
2018-05-13T01:13:59.986Z,15.00
2018-05-13T01:16:27.506Z,14.90
2018-05-13T01:18:55.139Z,14.90
2018-05-13T01:21:22.674Z,15.00
2018-05-13T01:23:50.198Z,15.10
2018-05-13T01:26:18.525Z,14.80
2018-05-13T01:28:46.073Z,14.70
2018-05-13T01:31:13.635Z,15.10
2018-05-13T01:33:41.185Z,15.00
2018-05-13T01:36:08.712Z,15.00
2018-05-13T01:38:37.016Z,14.90
2018-05-13T01:41:04.667Z,14.80
2018-05-13T01:43:32.267Z,14.90
2018-05-13T01:45:59.806Z,14.90
2018-05-13T01:48:27.520Z,15.00
2018-05-13T01:50:55.841Z,15.00
2018-05-13T01:53:23.420Z,14.90
2018-05-13T01:55:50.957Z,14.90
2018-05-13T01:58:18.502Z,14.80
2018-05-13T02:00:46.085Z,14.70
2018-05-13T02:03:13.660Z,14.70
2018-05-13T02:05:41.195Z,14.70
2018-05-13T02:08:08.764Z,14.70
2018-05-13T02:10:36.330Z,14.80
2018-05-13T02:13:03.886Z,15.00
2018-05-13T02:15:31.430Z,15.00
2018-05-13T02:17:59.086Z,15.10
2018-05-13T02:20:26.648Z,15.20
2018-05-13T02:22:54.216Z,15.20
2018-05-13T02:25:21.858Z,15.20
2018-05-13T02:27:49.403Z,15.20
2018-05-13T02:30:16.925Z,15.20
2018-05-13T02:32:44.479Z,15.30
2018-05-13T02:35:12.014Z,15.30
2018-05-13T02:37:39.546Z,15.30
2018-05-13T02:40:07.130Z,15.30
2018-05-13T02:42:34.658Z,15.20
2018-05-13T02:45:02.234Z,15.20
2018-05-13T02:47:29.803Z,15.30
2018-05-13T02:49:58.321Z,15.20
2018-05-13T02:52:25.855Z,15.20
2018-05-13T02:54:53.402Z,15.30
2018-05-13T02:57:20.925Z,15.30
2018-05-13T02:59:48.515Z,15.20
2018-05-13T03:02:16.195Z,15.20
2018-05-13T03:04:43.735Z,15.10
2018-05-13T03:07:11.295Z,14.90
2018-05-13T03:09:38.854Z,14.80
2018-05-13T03:12:06.385Z,14.90
2018-05-13T03:14:33.922Z,14.90
2018-05-13T03:17:02.243Z,14.60
2018-05-13T03:19:29.780Z,14.50
2018-05-13T03:21:57.310Z,14.80
2018-05-13T03:24:25.659Z,14.60
2018-05-13T03:26:54.018Z,14.60
2018-05-13T03:29:21.540Z,14.50
2018-05-13T03:31:49.879Z,14.30
2018-05-13T03:34:17.403Z,14.30
2018-05-13T03:36:44.931Z,14.20
2018-05-13T03:39:13.238Z,14.40
2018-05-13T03:41:40.788Z,14.30
2018-05-13T03:44:08.319Z,14.40
2018-05-13T03:46:36.654Z,14.70
2018-05-13T03:49:04.169Z,14.70
2018-05-13T03:51:31.699Z,14.70
2018-05-13T03:54:00.111Z,14.40
2018-05-13T03:56:27.625Z,14.40
2018-05-13T03:58:55.247Z,14.50
2018-05-13T04:01:22.791Z,14.60
2018-05-13T04:03:50.367Z,14.60
2018-05-13T04:06:17.881Z,14.80
2018-05-13T04:08:58.322Z,14.80
2018-05-13T04:11:40.062Z,14.70
2018-05-13T04:14:20.283Z,14.70
2018-05-13T04:16:48.574Z,15.00
2018-05-13T04:19:16.152Z,14.90
2018-05-13T04:21:43.715Z,15.10
2018-05-13T04:24:11.286Z,15.20
2018-05-13T04:26:38.805Z,15.20
2018-05-13T04:29:07.135Z,15.30
2018-05-13T04:31:34.686Z,15.20
2018-05-13T04:34:02.226Z,15.30
2018-05-13T04:36:30.297Z,15.30
2018-05-13T04:38:57.811Z,15.40
2018-05-13T04:41:26.147Z,15.30
2018-05-13T04:43:53.793Z,15.20
2018-05-13T04:46:21.348Z,15.40
2018-05-13T04:48:48.883Z,15.40
2018-05-13T04:51:16.477Z,15.40
2018-05-13T04:53:44.036Z,15.50
2018-05-13T04:56:11.557Z,15.60
2018-05-13T04:58:39.118Z,15.80
2018-05-13T05:01:07.395Z,16.10
2018-05-13T05:03:34.974Z,16.10
2018-05-13T05:06:02.529Z,16.20
2018-05-13T05:08:30.059Z,16.30
2018-05-13T05:10:58.377Z,16.50
2018-05-13T05:13:25.917Z,16.40
2018-05-13T05:15:53.497Z,16.70
2018-05-13T05:18:21.029Z,17.00
2018-05-13T05:20:48.604Z,17.10
2018-05-13T05:23:16.188Z,17.30
2018-05-13T05:25:43.719Z,17.10
2018-05-13T05:28:11.283Z,16.90
2018-05-13T05:30:38.826Z,17.00
2018-05-13T05:33:06.366Z,17.10
2018-05-13T05:35:34.681Z,17.30
2018-05-13T05:38:02.210Z,17.20
2018-05-13T05:40:29.746Z,17.20
2018-05-13T05:42:58.065Z,17.00
2018-05-13T05:45:25.627Z,17.00
2018-05-13T05:47:53.161Z,17.10
2018-05-13T05:50:20.722Z,17.00
2018-05-13T05:52:48.263Z,17.10
2018-05-13T05:55:16.558Z,17.10
2018-05-13T05:57:44.096Z,17.00
2018-05-13T06:00:12.428Z,16.90
2018-05-13T06:02:39.984Z,16.90
2018-05-13T06:05:07.946Z,16.90
2018-05-13T06:07:35.495Z,17.00
2018-05-13T06:10:03.059Z,16.90
2018-05-13T06:12:30.593Z,16.70
2018-05-13T06:14:58.119Z,16.70
2018-05-13T06:17:25.642Z,16.80
2018-05-13T06:19:53.195Z,16.60
2018-05-13T06:22:20.713Z,16.70
2018-05-13T06:24:49.003Z,16.80
2018-05-13T06:27:17.029Z,16.70
2018-05-13T06:29:44.551Z,16.60
2018-05-13T06:32:12.119Z,16.50
2018-05-13T06:34:39.679Z,16.60
2018-05-13T06:37:07.202Z,16.50
2018-05-13T06:39:35.610Z,16.40
2018-05-13T06:42:03.080Z,16.40
2018-05-13T06:44:30.619Z,16.50
2018-05-13T06:46:58.183Z,16.60
2018-05-13T06:49:25.766Z,16.60
2018-05-13T06:51:53.403Z,16.60
2018-05-13T06:54:20.944Z,16.70
2018-05-13T06:56:48.939Z,16.90
2018-05-13T06:59:16.481Z,17.00
2018-05-13T07:01:44.567Z,17.00
2018-05-13T07:04:12.111Z,16.80
2018-05-13T07:06:39.692Z,17.00
2018-05-13T07:09:07.415Z,17.10
2018-05-13T07:11:35.011Z,17.30
2018-05-13T07:14:02.559Z,17.40
2018-05-13T07:16:30.204Z,17.60
2018-05-13T07:18:57.650Z,17.50
2018-05-13T07:21:25.180Z,17.70
2018-05-13T07:23:52.743Z,17.70
2018-05-13T07:26:21.029Z,18.00
2018-05-13T07:28:49.307Z,18.20
2018-05-13T07:31:17.606Z,18.50
2018-05-13T07:33:45.170Z,18.40
2018-05-13T07:36:12.730Z,18.60
2018-05-13T07:38:40.266Z,18.80
2018-05-13T07:41:07.842Z,19.00
2018-05-13T07:43:35.403Z,19.00
2018-05-13T07:46:02.974Z,18.90
2018-05-13T07:48:30.685Z,19.10
2018-05-13T07:50:58.332Z,19.10
2018-05-13T07:53:25.858Z,18.90
2018-05-13T07:55:53.443Z,18.80
2018-05-13T07:58:21.078Z,18.70
2018-05-13T08:00:48.731Z,18.20
2018-05-13T08:03:16.269Z,18.00
2018-05-13T08:05:43.854Z,18.10
2018-05-13T08:08:11.404Z,18.20
2018-05-13T08:10:38.973Z,18.60
2018-05-13T08:13:06.663Z,19.00
2018-05-13T08:15:34.299Z,18.90
2018-05-13T08:18:01.849Z,19.10
2018-05-13T08:20:30.326Z,19.30
2018-05-13T08:22:57.911Z,19.10
2018-05-13T08:25:25.559Z,19.30
2018-05-13T08:27:53.098Z,19.40
2018-05-13T08:30:20.636Z,19.70
2018-05-13T08:32:48.194Z,19.90
2018-05-13T08:35:16.525Z,20.60
2018-05-13T08:37:44.148Z,20.50
2018-05-13T08:40:11.665Z,20.60
2018-05-13T08:42:39.189Z,21.30
2018-05-13T08:45:06.832Z,21.80
2018-05-13T08:47:34.490Z,21.80
2018-05-13T08:50:02.060Z,21.50
2018-05-13T08:52:29.602Z,21.70
2018-05-13T08:54:57.117Z,21.80
2018-05-13T08:57:24.750Z,21.30
2018-05-13T08:59:52.269Z,21.40
2018-05-13T09:02:19.804Z,21.70
2018-05-13T09:04:48.145Z,21.30
2018-05-13T09:07:15.670Z,21.30
2018-05-13T09:09:43.228Z,21.30
2018-05-13T09:12:10.767Z,21.30
2018-05-13T09:14:39.052Z,21.80
2018-05-13T09:17:06.634Z,21.70
2018-05-13T09:19:34.168Z,21.60
2018-05-13T09:22:01.728Z,21.20
2018-05-13T09:24:29.346Z,21.70
2018-05-13T09:26:56.870Z,21.90
2018-05-13T09:29:25.173Z,22.00
2018-05-13T09:31:52.740Z,21.90
2018-05-13T09:34:20.384Z,22.10
2018-05-13T09:36:47.931Z,21.90
2018-05-13T09:39:15.463Z,21.80
2018-05-13T09:41:43.031Z,21.50
2018-05-13T09:44:10.577Z,21.40
2018-05-13T09:46:38.122Z,21.60
2018-05-13T09:49:06.401Z,22.00
2018-05-13T09:51:34.816Z,22.20
2018-05-13T09:54:02.338Z,22.20
2018-05-13T09:56:30.634Z,22.10
2018-05-13T09:58:58.222Z,22.00
2018-05-13T10:01:25.851Z,22.50
2018-05-13T10:03:53.425Z,22.50
2018-05-13T10:06:20.987Z,22.50
2018-05-13T10:08:48.856Z,22.30
2018-05-13T10:11:16.394Z,22.40
2018-05-13T10:13:43.944Z,22.50
2018-05-13T10:16:11.535Z,22.60
2018-05-13T10:18:39.053Z,22.70
2018-05-13T10:21:07.466Z,22.50
2018-05-13T10:23:35.007Z,22.50
2018-05-13T10:26:02.548Z,23.00
2018-05-13T10:28:30.101Z,23.30
2018-05-13T10:30:58.410Z,23.40
2018-05-13T10:33:25.974Z,23.30
2018-05-13T10:35:53.525Z,23.60
2018-05-13T10:38:21.088Z,23.60
2018-05-13T10:40:48.658Z,23.40
2018-05-13T10:43:16.305Z,23.70
2018-05-13T10:45:43.909Z,23.90
2018-05-13T10:48:11.451Z,23.90
2018-05-13T10:50:38.982Z,23.40
2018-05-13T10:53:06.615Z,22.80
2018-05-13T10:55:34.943Z,22.90
2018-05-13T10:58:02.498Z,22.90
2018-05-13T11:00:30.074Z,23.00
2018-05-13T11:02:57.620Z,23.40
2018-05-13T11:05:25.260Z,23.70
2018-05-13T11:07:52.794Z,23.60
2018-05-13T11:10:20.347Z,23.20
2018-05-13T11:12:48.666Z,24.30
2018-05-13T11:15:16.202Z,24.20
2018-05-13T11:17:43.741Z,24.10
2018-05-13T11:20:12.058Z,24.30
2018-05-13T11:22:39.609Z,24.20
2018-05-13T11:25:07.170Z,24.70
2018-05-13T11:27:34.711Z,24.40
2018-05-13T11:30:02.240Z,24.00
2018-05-13T11:32:30.663Z,24.00
2018-05-13T11:34:58.191Z,23.90
2018-05-13T11:37:25.715Z,24.20
2018-05-13T11:39:53.375Z,24.60
2018-05-13T11:42:20.910Z,24.70
2018-05-13T11:44:48.651Z,24.40
2018-05-13T11:47:16.142Z,24.30
2018-05-13T11:49:43.804Z,24.40
2018-05-13T11:52:11.447Z,24.30
2018-05-13T11:54:38.965Z,24.10
2018-05-13T11:57:06.567Z,24.50
2018-05-13T11:59:34.110Z,24.30
2018-05-13T12:02:01.634Z,24.30
2018-05-13T12:04:29.946Z,24.90
2018-05-13T12:06:57.469Z,24.80
2018-05-13T12:09:25.776Z,25.40
2018-05-13T12:11:53.437Z,25.40
2018-05-13T12:14:20.981Z,26.10
2018-05-13T12:16:48.566Z,25.80
2018-05-13T12:19:17.038Z,25.20
2018-05-13T12:21:44.670Z,25.40
2018-05-13T12:24:12.974Z,26.10
2018-05-13T12:26:42.177Z,26.00
2018-05-13T12:29:09.748Z,26.80
2018-05-13T12:31:37.290Z,27.30
2018-05-13T12:34:04.865Z,27.70
2018-05-13T12:36:32.406Z,28.00
2018-05-13T12:38:59.949Z,27.60
2018-05-13T12:41:27.486Z,28.00
2018-05-13T12:43:55.774Z,29.10
2018-05-13T12:46:24.105Z,28.50
2018-05-13T12:48:52.449Z,28.50
2018-05-13T12:51:20.010Z,28.00
2018-05-13T12:53:47.672Z,27.90
2018-05-13T12:56:15.716Z,28.70
2018-05-13T12:58:43.199Z,28.50
2018-05-13T13:01:10.760Z,28.80
2018-05-13T13:03:38.328Z,28.50
2018-05-13T13:06:05.856Z,28.60
2018-05-13T13:08:33.441Z,28.20
2018-05-13T13:11:00.992Z,28.30
2018-05-13T13:13:28.519Z,28.70
2018-05-13T13:15:56.929Z,29.60
2018-05-13T13:18:24.457Z,29.50
2018-05-13T13:20:52.735Z,28.20
2018-05-13T13:23:21.073Z,27.80
2018-05-13T13:25:48.685Z,27.70
2018-05-13T13:28:16.143Z,27.10
2018-05-13T13:30:43.736Z,25.60
2018-05-13T13:33:11.288Z,25.50
2018-05-13T13:35:38.824Z,25.20
2018-05-13T13:38:06.521Z,24.80
2018-05-13T13:40:34.064Z,24.60
2018-05-13T13:43:01.712Z,24.50
2018-05-13T13:45:29.272Z,24.80
2018-05-13T13:47:56.842Z,24.90
2018-05-13T13:50:24.390Z,24.70
2018-05-13T13:52:52.053Z,25.10
2018-05-13T13:55:19.584Z,24.70
2018-05-13T13:57:47.927Z,23.90
2018-05-13T14:00:15.474Z,23.80
2018-05-13T14:02:42.998Z,23.40
2018-05-13T14:05:10.531Z,23.10
2018-05-13T14:07:38.857Z,22.30
2018-05-13T14:10:06.396Z,22.20
2018-05-13T14:12:33.938Z,21.80
2018-05-13T14:15:01.492Z,21.50
2018-05-13T14:17:29.100Z,21.00
2018-05-13T14:19:56.648Z,20.70
2018-05-13T14:22:24.209Z,20.60
2018-05-13T14:24:51.759Z,20.60
2018-05-13T14:27:19.268Z,20.60
2018-05-13T14:29:47.588Z,20.30
2018-05-13T14:32:15.122Z,20.20
2018-05-13T14:34:42.656Z,20.20
2018-05-13T14:37:10.257Z,20.00
2018-05-13T14:39:37.819Z,19.80
2018-05-13T14:42:05.345Z,19.70
2018-05-13T14:44:33.673Z,19.70
2018-05-13T14:47:01.351Z,19.60
2018-05-13T14:49:28.895Z,19.60
2018-05-13T14:51:56.535Z,19.50
2018-05-13T14:54:24.058Z,19.30
2018-05-13T14:56:52.344Z,19.10
2018-05-13T14:59:20.849Z,18.90
2018-05-13T15:01:48.387Z,18.90
2018-05-13T15:04:15.936Z,18.80
2018-05-13T15:06:44.357Z,18.50
2018-05-13T15:09:12.004Z,18.40
2018-05-13T15:11:39.541Z,18.40
2018-05-13T15:14:07.118Z,18.30
2018-05-13T15:16:34.695Z,18.30
2018-05-13T15:19:02.231Z,18.20
2018-05-13T15:21:29.813Z,17.90
2018-05-13T15:23:57.357Z,17.80
2018-05-13T15:26:24.878Z,17.80
2018-05-13T15:28:53.337Z,17.50
2018-05-13T15:31:20.897Z,17.40
2018-05-13T15:33:48.617Z,17.20
2018-05-13T15:36:16.192Z,16.90
2018-05-13T15:38:43.745Z,16.40
2018-05-13T15:41:11.309Z,16.20
2018-05-13T15:43:38.970Z,16.10
2018-05-13T15:46:06.489Z,15.90
2018-05-13T15:48:34.790Z,15.60
2018-05-13T15:51:02.589Z,15.60
2018-05-13T15:53:30.246Z,15.50
2018-05-13T15:55:57.793Z,15.30
2018-05-13T15:58:25.345Z,15.20
2018-05-13T16:00:52.877Z,15.20
2018-05-13T16:03:20.466Z,15.00
2018-05-13T16:05:48.040Z,14.90
2018-05-13T16:08:15.581Z,15.00
2018-05-13T16:10:43.111Z,14.80
2018-05-13T16:13:10.674Z,14.70
2018-05-13T16:15:38.262Z,14.70
2018-05-13T16:18:05.819Z,14.60
2018-05-13T16:20:33.465Z,14.60
2018-05-13T16:23:01.019Z,14.50
2018-05-13T16:25:28.601Z,14.40
2018-05-13T16:27:56.296Z,14.30
2018-05-13T16:30:23.980Z,14.30
2018-05-13T16:32:52.257Z,14.40
2018-05-13T16:35:20.600Z,14.50
2018-05-13T16:37:48.216Z,14.40
2018-05-13T16:40:15.760Z,14.50
2018-05-13T16:42:43.314Z,14.40
2018-05-13T16:45:10.913Z,14.40
2018-05-13T16:47:38.448Z,14.30
2018-05-13T16:50:06.016Z,14.30
2018-05-13T16:52:33.556Z,14.30
2018-05-13T16:55:01.134Z,14.20
2018-05-13T16:57:28.708Z,14.10
2018-05-13T16:59:56.298Z,14.00
2018-05-13T17:02:23.851Z,14.00
2018-05-13T17:04:51.468Z,14.00
2018-05-13T17:07:19.025Z,13.90
2018-05-13T17:09:46.571Z,13.90
2018-05-13T17:12:14.163Z,13.90
2018-05-13T17:14:42.064Z,13.90
2018-05-13T17:17:10.412Z,13.90
2018-05-13T17:19:38.075Z,13.80
2018-05-13T17:22:05.630Z,13.90
2018-05-13T17:24:33.172Z,13.90
2018-05-13T17:27:00.732Z,13.90
2018-05-13T17:29:28.285Z,13.90
2018-05-13T17:31:55.826Z,13.80
2018-05-13T17:34:23.429Z,13.80
2018-05-13T17:36:51.005Z,13.80
2018-05-13T17:39:18.728Z,13.70
2018-05-13T17:41:47.015Z,13.90
2018-05-13T17:44:14.560Z,13.80
2018-05-13T17:46:42.095Z,13.90
2018-05-13T17:49:09.703Z,13.90
2018-05-13T17:51:37.251Z,13.90
2018-05-13T17:54:04.819Z,13.80
2018-05-13T17:56:32.460Z,13.80
2018-05-13T17:59:00.033Z,13.80
2018-05-13T18:01:27.577Z,13.80
2018-05-13T18:03:55.130Z,13.90
2018-05-13T18:06:22.687Z,14.00
2018-05-13T18:08:50.221Z,14.00
2018-05-13T18:11:18.542Z,14.00
2018-05-13T18:13:46.342Z,13.90
2018-05-13T18:16:15.085Z,14.00
2018-05-13T18:18:42.737Z,13.90
2018-05-13T18:21:10.271Z,14.00
2018-05-13T18:23:37.803Z,14.00
2018-05-13T18:26:05.363Z,14.10
2018-05-13T18:28:32.905Z,14.10
2018-05-13T18:31:00.478Z,14.10
2018-05-13T18:33:28.858Z,14.00
2018-05-13T18:35:56.401Z,14.00
2018-05-13T18:38:23.964Z,14.00
2018-05-13T18:40:51.543Z,14.00
2018-05-13T18:43:19.881Z,14.10
2018-05-13T18:45:47.411Z,14.00
2018-05-13T18:48:15.289Z,14.10
2018-05-13T18:50:42.852Z,14.10
2018-05-13T18:53:10.384Z,14.10
2018-05-13T18:55:37.970Z,14.10
2018-05-13T18:58:05.532Z,14.10
2018-05-13T19:00:33.094Z,14.00
2018-05-13T19:03:00.677Z,13.90
2018-05-13T19:05:28.231Z,13.90
2018-05-13T19:07:55.876Z,13.90
2018-05-13T19:10:23.513Z,13.90
2018-05-13T19:12:51.045Z,13.90
2018-05-13T19:15:19.339Z,13.90
2018-05-13T19:17:46.924Z,13.80
2018-05-13T19:20:14.479Z,13.90
2018-05-13T19:22:42.062Z,13.90
2018-05-13T19:25:09.626Z,13.90
2018-05-13T19:27:37.181Z,13.90
2018-05-13T19:30:04.718Z,13.90
2018-05-13T19:32:32.332Z,13.90
2018-05-13T19:35:00.656Z,14.00
2018-05-13T19:37:28.194Z,14.00
2018-05-13T19:39:57.070Z,14.10
2018-05-13T19:42:24.760Z,14.20
2018-05-13T19:44:52.327Z,14.10
2018-05-13T19:47:19.903Z,14.20
2018-05-13T19:49:47.549Z,14.20
2018-05-13T19:52:15.205Z,14.30
2018-05-13T19:54:42.772Z,14.40
2018-05-13T19:57:10.321Z,14.60
2018-05-13T19:59:37.868Z,14.70
2018-05-13T20:02:05.438Z,14.80
2018-05-13T20:04:33.028Z,14.70
2018-05-13T20:07:00.689Z,14.70
2018-05-13T20:09:28.300Z,14.70
2018-05-13T20:11:56.803Z,14.80
2018-05-13T20:14:24.510Z,14.90
2018-05-13T20:16:52.834Z,14.90
2018-05-13T20:19:20.379Z,14.80
2018-05-13T20:21:47.939Z,14.80
2018-05-13T20:24:16.323Z,14.80
2018-05-13T20:26:43.887Z,14.70
2018-05-13T20:29:11.450Z,14.50
2018-05-13T20:31:39.028Z,14.50
2018-05-13T20:34:06.562Z,14.50
2018-05-13T20:36:34.096Z,14.60
2018-05-13T20:39:01.797Z,14.60
2018-05-13T20:41:29.354Z,14.50
2018-05-13T20:43:56.895Z,14.60
2018-05-13T20:46:24.458Z,14.80
2018-05-13T20:48:52.014Z,15.00
2018-05-13T20:51:19.588Z,15.00
2018-05-13T20:53:47.225Z,15.10
2018-05-13T20:56:14.753Z,15.00
2018-05-13T20:58:43.081Z,15.00
2018-05-13T21:01:10.728Z,15.00
2018-05-13T21:03:38.264Z,15.00
2018-05-13T21:06:05.818Z,14.90
2018-05-13T21:08:33.374Z,14.90
2018-05-13T21:11:00.971Z,14.80
2018-05-13T21:13:28.526Z,14.70
2018-05-13T21:15:56.136Z,14.60
2018-05-13T21:18:23.741Z,14.60
2018-05-13T21:20:51.281Z,14.70
2018-05-13T21:23:18.851Z,14.60
2018-05-13T21:25:46.381Z,14.60
2018-05-13T21:28:14.740Z,14.70
2018-05-13T21:30:43.062Z,14.60
2018-05-13T21:33:10.639Z,14.60
2018-05-13T21:35:38.195Z,14.60
2018-05-13T21:38:05.755Z,14.60
2018-05-13T21:40:33.304Z,14.60
2018-05-13T21:43:00.839Z,14.60
2018-05-13T21:45:28.400Z,14.60
2018-05-13T21:47:55.946Z,14.60
2018-05-13T21:50:24.264Z,14.50
2018-05-13T21:52:51.827Z,14.50
2018-05-13T21:55:19.369Z,14.50
2018-05-13T21:57:47.020Z,14.50
2018-05-13T22:00:14.513Z,14.50
2018-05-13T22:02:42.043Z,14.50
2018-05-13T22:05:09.579Z,14.50
2018-05-13T22:07:37.171Z,14.50
2018-05-13T22:10:04.736Z,14.50
2018-05-13T22:12:32.265Z,14.50
2018-05-13T22:14:59.836Z,14.50
2018-05-13T22:17:27.387Z,14.50
2018-05-13T22:19:55.053Z,14.50
2018-05-13T22:22:22.618Z,14.60
2018-05-13T22:24:50.140Z,14.60
2018-05-13T22:27:18.789Z,14.60
2018-05-13T22:29:46.360Z,14.60
2018-05-13T22:32:14.660Z,14.60
2018-05-13T22:34:42.949Z,14.60
2018-05-13T22:37:10.516Z,14.60
2018-05-13T22:39:38.062Z,14.60
2018-05-13T22:42:05.604Z,14.70
2018-05-13T22:44:34.033Z,14.70
2018-05-13T22:47:01.584Z,14.60
2018-05-13T22:49:29.119Z,14.70
2018-05-13T22:51:56.689Z,14.70
2018-05-13T22:54:24.256Z,14.80
2018-05-13T22:56:52.203Z,14.80
2018-05-13T22:59:20.080Z,14.80
2018-05-13T23:01:47.610Z,15.00
2018-05-13T23:04:15.905Z,14.70
2018-05-13T23:06:43.475Z,14.70
2018-05-13T23:09:11.087Z,14.90
2018-05-13T23:11:38.549Z,14.80
2018-05-13T23:14:06.114Z,14.80
2018-05-13T23:16:34.414Z,14.80
2018-05-13T23:19:02.099Z,14.80
2018-05-13T23:21:29.666Z,14.80
2018-05-13T23:23:57.189Z,15.00
2018-05-13T23:26:24.732Z,15.00
2018-05-13T23:28:53.157Z,15.00
2018-05-13T23:31:20.710Z,15.00
2018-05-13T23:33:48.229Z,15.00
2018-05-13T23:36:16.564Z,14.90
2018-05-13T23:38:44.149Z,14.90
2018-05-13T23:41:11.878Z,14.80
2018-05-13T23:43:39.424Z,14.80
2018-05-13T23:46:06.956Z,14.80
2018-05-13T23:48:34.491Z,14.80
2018-05-13T23:51:02.110Z,14.70
2018-05-13T23:53:29.655Z,14.80
2018-05-13T23:55:57.223Z,14.80
2018-05-13T23:58:24.883Z,14.80
